sensor_id;sensor_type;location;lat;lon;timestamp;P1;durP1;ratioP1;P2;durP2;ratioP2
8656;SDS011;4366;50.764;7.184;2024-02-23T00:02:51;1.10;;;1.10;;
8656;SDS011;4366;50.764;7.184;2024-02-23T00:07:52;1.17;;;1.17;;
8656;SDS011;4366;50.764;7.184;2024-02-23T00:12:54;1.10;;;1.10;;
8656;SDS011;4366;50.764;7.184;2024-02-23T00:17:56;1.20;;;1.20;;
8656;SDS011;4366;50.764;7.184;2024-02-23T00:22:57;1.20;;;1.20;;
8656;SDS011;4366;50.764;7.184;2024-02-23T00:27:59;1.30;;;1.20;;
8656;SDS011;4366;50.764;7.184;2024-02-23T00:33:01;1.30;;;1.30;;
8656;SDS011;4366;50.764;7.184;2024-02-23T00:43:49;1.10;;;1.10;;
8656;SDS011;4366;50.764;7.184;2024-02-23T00:48:51;1.90;;;1.20;;
8656;SDS011;4366;50.764;7.184;2024-02-23T00:53:53;1.20;;;1.20;;
8656;SDS011;4366;50.764;7.184;2024-02-23T00:58:55;1.30;;;1.30;;
8656;SDS011;4366;50.764;7.184;2024-02-23T01:03:57;1.10;;;1.10;;
8656;SDS011;4366;50.764;7.184;2024-02-23T01:08:59;1.30;;;1.30;;
8656;SDS011;4366;50.764;7.184;2024-02-23T01:14:01;1.20;;;1.20;;
8656;SDS011;4366;50.764;7.184;2024-02-23T01:19:03;1.30;;;1.30;;
8656;SDS011;4366;50.764;7.184;2024-02-23T01:24:04;1.40;;;1.40;;
8656;SDS011;4366;50.764;7.184;2024-02-23T01:29:06;1.40;;;1.40;;
8656;SDS011;4366;50.764;7.184;2024-02-23T01:34:08;1.30;;;1.30;;
8656;SDS011;4366;50.764;7.184;2024-02-23T01:39:10;1.30;;;1.30;;
8656;SDS011;4366;50.764;7.184;2024-02-23T01:44:12;1.80;;;1.60;;
8656;SDS011;4366;50.764;7.184;2024-02-23T01:49:16;1.43;;;1.40;;
8656;SDS011;4366;50.764;7.184;2024-02-23T01:54:18;1.43;;;1.43;;
8656;SDS011;4366;50.764;7.184;2024-02-23T01:59:20;1.50;;;1.50;;
8656;SDS011;4366;50.764;7.184;2024-02-23T02:04:21;2.03;;;1.53;;
8656;SDS011;4366;50.764;7.184;2024-02-23T02:09:23;1.30;;;1.30;;
8656;SDS011;4366;50.764;7.184;2024-02-23T02:14:25;1.60;;;1.50;;
8656;SDS011;4366;50.764;7.184;2024-02-23T02:19:27;1.43;;;1.43;;
8656;SDS011;4366;50.764;7.184;2024-02-23T02:24:30;1.40;;;1.40;;
8656;SDS011;4366;50.764;7.184;2024-02-23T02:29:33;1.47;;;1.47;;
8656;SDS011;4366;50.764;7.184;2024-02-23T02:34:35;1.50;;;1.50;;
8656;SDS011;4366;50.764;7.184;2024-02-23T02:39:37;1.60;;;1.50;;
8656;SDS011;4366;50.764;7.184;2024-02-23T02:44:38;1.67;;;1.60;;
8656;SDS011;4366;50.764;7.184;2024-02-23T02:49:40;1.50;;;1.50;;
8656;SDS011;4366;50.764;7.184;2024-02-23T02:54:42;1.60;;;1.50;;
8656;SDS011;4366;50.764;7.184;2024-02-23T02:59:43;1.47;;;1.47;;
8656;SDS011;4366;50.764;7.184;2024-02-23T03:04:46;1.53;;;1.30;;
8656;SDS011;4366;50.764;7.184;2024-02-23T03:09:51;1.50;;;1.50;;
8656;SDS011;4366;50.764;7.184;2024-02-23T03:14:53;1.47;;;1.47;;
8656;SDS011;4366;50.764;7.184;2024-02-23T03:19:57;1.67;;;1.57;;
8656;SDS011;4366;50.764;7.184;2024-02-23T03:24:59;2.00;;;1.50;;
8656;SDS011;4366;50.764;7.184;2024-02-23T03:30:02;2.00;;;1.80;;
8656;SDS011;4366;50.764;7.184;2024-02-23T03:35:05;1.43;;;1.43;;
8656;SDS011;4366;50.764;7.184;2024-02-23T03:40:09;1.50;;;1.50;;
8656;SDS011;4366;50.764;7.184;2024-02-23T03:45:11;1.60;;;1.60;;
8656;SDS011;4366;50.764;7.184;2024-02-23T03:50:14;1.80;;;1.30;;
8656;SDS011;4366;50.764;7.184;2024-02-23T03:55:15;1.57;;;1.57;;
8656;SDS011;4366;50.764;7.184;2024-02-23T04:00:17;1.50;;;1.50;;
8656;SDS011;4366;50.764;7.184;2024-02-23T04:05:20;1.40;;;1.40;;
8656;SDS011;4366;50.764;7.184;2024-02-23T04:10:22;1.50;;;1.50;;
8656;SDS011;4366;50.764;7.184;2024-02-23T04:15:24;1.47;;;1.47;;
8656;SDS011;4366;50.764;7.184;2024-02-23T04:20:25;1.57;;;1.50;;
8656;SDS011;4366;50.764;7.184;2024-02-23T04:25:27;1.40;;;1.40;;
8656;SDS011;4366;50.764;7.184;2024-02-23T04:30:30;1.60;;;1.50;;
8656;SDS011;4366;50.764;7.184;2024-02-23T04:35:32;1.70;;;1.63;;
8656;SDS011;4366;50.764;7.184;2024-02-23T04:40:34;1.90;;;1.80;;
8656;SDS011;4366;50.764;7.184;2024-02-23T04:45:37;1.50;;;1.50;;
8656;SDS011;4366;50.764;7.184;2024-02-23T04:50:38;2.47;;;1.50;;
8656;SDS011;4366;50.764;7.184;2024-02-23T04:55:40;1.60;;;1.60;;
8656;SDS011;4366;50.764;7.184;2024-02-23T05:00:43;1.50;;;1.50;;
8656;SDS011;4366;50.764;7.184;2024-02-23T05:05:45;1.60;;;1.50;;
8656;SDS011;4366;50.764;7.184;2024-02-23T05:10:47;1.57;;;1.50;;
8656;SDS011;4366;50.764;7.184;2024-02-23T05:15:49;1.80;;;1.70;;
8656;SDS011;4366;50.764;7.184;2024-02-23T05:20:50;2.00;;;1.80;;
8656;SDS011;4366;50.764;7.184;2024-02-23T05:25:55;1.50;;;1.50;;
8656;SDS011;4366;50.764;7.184;2024-02-23T05:30:56;2.50;;;1.60;;
8656;SDS011;4366;50.764;7.184;2024-02-23T05:35:58;1.57;;;1.57;;
8656;SDS011;4366;50.764;7.184;2024-02-23T05:41:00;1.90;;;1.63;;
8656;SDS011;4366;50.764;7.184;2024-02-23T05:46:02;1.60;;;1.60;;
8656;SDS011;4366;50.764;7.184;2024-02-23T05:51:04;2.73;;;1.70;;
8656;SDS011;4366;50.764;7.184;2024-02-23T05:56:06;1.90;;;1.77;;
8656;SDS011;4366;50.764;7.184;2024-02-23T06:01:09;1.90;;;1.80;;
8656;SDS011;4366;50.764;7.184;2024-02-23T06:06:11;1.80;;;1.70;;
8656;SDS011;4366;50.764;7.184;2024-02-23T06:11:13;2.00;;;1.80;;
8656;SDS011;4366;50.764;7.184;2024-02-23T06:16:14;1.70;;;1.60;;
8656;SDS011;4366;50.764;7.184;2024-02-23T06:21:17;2.00;;;1.90;;
8656;SDS011;4366;50.764;7.184;2024-02-23T06:26:19;1.90;;;1.80;;
8656;SDS011;4366;50.764;7.184;2024-02-23T06:31:21;2.50;;;1.90;;
8656;SDS011;4366;50.764;7.184;2024-02-23T06:36:22;1.83;;;1.73;;
